Time,TemperatureF,DewpointF,PressureIn,WindDirection,WindDirectionDegrees,WindSpeedMPH,WindSpeedGustMPH,Humidity,HourlyPrecipIn,Conditions,Clouds,dailyrainin,SoftwareType,DateUTC
2013-06-17 06:50:00,67.8,66.9,29.93,South,178,1.0,3.0,97,0.00,,,0.00,Wunderground v.1.15,2013-06-17 11:50:00,
2013-06-17 06:55:00,68.3,67.4,29.93,South,182,2.0,3.0,97,0.00,,,0.00,Wunderground v.1.15,2013-06-17 11:55:00,
2013-06-17 07:00:00,68.9,68.0,29.93,South,184,3.0,3.0,97,0.00,,,0.00,Wunderground v.1.15,2013-06-17 12:00:00,
2013-06-17 07:05:00,69.3,68.1,29.93,South,186,2.0,3.0,96,0.00,,,0.00,Wunderground v.1.15,2013-06-17 12:05:00,
2013-06-17 07:10:00,69.7,68.5,29.93,South,186,2.0,2.0,96,0.00,,,0.00,Wunderground v.1.15,2013-06-17 12:10:00,
2013-06-17 07:15:00,70.1,68.6,29.93,South,188,2.0,2.0,95,0.00,,,0.00,Wunderground v.1.15,2013-06-17 12:15:00,
2013-06-17 07:20:00,70.5,69.0,29.93,SSW,207,2.0,3.0,95,0.00,,,0.00,Wunderground v.1.15,2013-06-17 12:20:00,
2013-06-17 07:30:00,71.0,68.9,29.93,SSW,210,2.0,2.0,93,0.00,,,0.00,Wunderground v.1.15,2013-06-17 12:30:00,
2013-06-17 07:35:00,71.3,69.5,29.93,SSW,210,1.0,2.0,94,0.00,,,0.00,Wunderground v.1.15,2013-06-17 12:35:00,
2013-06-17 07:40:00,71.7,69.3,29.93,SSW,210,1.0,3.0,92,0.00,,,0.00,Wunderground v.1.15,2013-06-17 12:40:00,
2013-06-17 07:45:00,72.0,69.5,29.93,SSW,210,1.0,4.0,92,0.00,,,0.00,Wunderground v.1.15,2013-06-17 12:45:00,
2013-06-17 07:50:00,72.3,69.5,29.93,SSW,209,3.0,3.0,91,0.00,,,0.00,Wunderground v.1.15,2013-06-17 12:50:00,
2013-06-17 07:55:00,72.7,69.9,29.93,SSW,196,3.0,6.0,91,0.00,,,0.00,Wunderground v.1.15,2013-06-17 12:55:00,
2013-06-17 08:00:00,73.0,69.9,29.94,SW,221,4.0,5.0,90,0.00,,,0.00,Wunderground v.1.15,2013-06-17 13:00:00,
2013-06-17 08:05:00,73.5,70.1,29.94,SSW,206,4.0,5.0,89,0.00,,,0.00,Wunderground v.1.15,2013-06-17 13:05:00,
2013-06-17 08:15:00,73.9,70.1,29.94,SSW,204,4.0,4.0,88,0.00,,,0.00,Wunderground v.1.15,2013-06-17 13:15:00,
2013-06-17 08:20:00,74.3,70.2,29.94,SSW,205,3.0,3.0,87,0.00,,,0.00,Wunderground v.1.15,2013-06-17 13:20:00,
2013-06-17 08:25:00,74.6,70.5,29.94,SW,216,3.0,3.0,87,0.00,,,0.00,Wunderground v.1.15,2013-06-17 13:25:00,
2013-06-17 08:30:00,74.9,70.1,29.94,SW,216,3.0,3.0,85,0.00,,,0.00,Wunderground v.1.15,2013-06-17 13:30:00,
2013-06-17 08:55:00,76.7,71.1,29.94,SSW,213,2.0,2.0,83,0.00,,,0.00,Wunderground v.1.15,2013-06-17 13:55:00,
2013-06-17 09:00:00,77.0,70.0,29.94,SSW,213,2.0,2.0,79,0.00,,,0.00,Wunderground v.1.15,2013-06-17 14:00:00,
2013-06-17 09:05:00,77.3,70.6,29.93,SSW,213,2.0,3.0,80,0.00,,,0.00,Wunderground v.1.15,2013-06-17 14:05:00,
2013-06-17 09:10:00,77.7,70.7,29.93,SSW,213,1.0,2.0,79,0.00,,,0.00,Wunderground v.1.15,2013-06-17 14:10:00,
2013-06-17 09:15:00,78.1,69.9,29.94,SW,214,1.0,2.0,76,0.00,,,0.00,Wunderground v.1.15,2013-06-17 14:15:00,
2013-06-17 09:20:00,78.5,70.3,29.93,SW,216,1.0,1.0,76,0.00,,,0.00,Wunderground v.1.15,2013-06-17 14:20:00,
2013-06-17 09:25:00,78.9,69.5,29.93,SW,217,1.0,1.0,73,0.00,,,0.00,Wunderground v.1.15,2013-06-17 14:25:00,
2013-06-17 09:30:00,79.3,69.1,29.93,SW,217,1.0,2.0,71,0.00,,,0.00,Wunderground v.1.15,2013-06-17 14:30:00,
2013-06-17 09:35:00,79.5,68.0,29.93,SW,217,1.0,2.0,68,0.00,,,0.00,Wunderground v.1.15,2013-06-17 14:35:00,
2013-06-17 09:40:00,79.8,67.9,29.93,SSW,202,2.0,2.0,67,0.00,,,0.00,Wunderground v.1.15,2013-06-17 14:40:00,
2013-06-17 09:45:00,80.0,68.5,29.93,SSW,202,2.0,2.0,68,0.00,,,0.00,Wunderground v.1.15,2013-06-17 14:45:00,
2013-06-17 09:50:00,80.3,69.2,29.93,SSW,207,2.0,2.0,69,0.00,,,0.00,Wunderground v.1.15,2013-06-17 14:50:00,
2013-06-17 09:55:00,80.5,68.5,29.93,SSW,211,3.0,3.0,67,0.00,,,0.00,Wunderground v.1.15,2013-06-17 14:55:00,
2013-06-17 10:00:00,80.7,67.8,29.92,SSW,209,3.0,3.0,65,0.00,,,0.00,Wunderground v.1.15,2013-06-17 15:00:00,
2013-06-17 10:05:00,80.8,67.0,29.92,SSW,209,1.0,3.0,63,0.00,,,0.00,Wunderground v.1.15,2013-06-17 15:05:00,
2013-06-17 10:10:00,81.0,67.7,29.92,SSW,208,1.0,1.0,64,0.00,,,0.00,Wunderground v.1.15,2013-06-17 15:10:00,
2013-06-17 10:15:00,81.3,67.5,29.92,SSW,208,1.0,1.0,63,0.00,,,0.00,Wunderground v.1.15,2013-06-17 15:15:00,
2013-06-17 10:20:00,81.7,66.9,29.92,SSW,208,0.0,0.0,61,0.00,,,0.00,Wunderground v.1.15,2013-06-17 15:20:00,
2013-06-17 10:25:00,82.0,66.3,29.92,SSW,204,0.0,1.0,59,0.00,,,0.00,Wunderground v.1.15,2013-06-17 15:25:00,
2013-06-17 10:30:00,82.1,65.9,29.92,SSW,205,1.0,1.0,58,0.00,,,0.00,Wunderground v.1.15,2013-06-17 15:30:00,
2013-06-17 10:35:00,82.2,63.9,29.92,South,189,2.0,2.0,54,0.00,,,0.00,Wunderground v.1.15,2013-06-17 15:35:00,
2013-06-17 10:40:00,82.3,65.0,29.92,South,189,1.0,1.0,56,0.00,,,0.00,Wunderground v.1.15,2013-06-17 15:40:00,
2013-06-17 10:45:00,82.4,64.1,29.92,South,189,0.0,1.0,54,0.00,,,0.00,Wunderground v.1.15,2013-06-17 15:45:00,
2013-06-17 10:50:00,82.8,66.5,29.92,South,189,1.0,2.0,58,0.00,,,0.00,Wunderground v.1.15,2013-06-17 15:50:00,
2013-06-17 10:55:00,83.0,60.1,29.92,South,189,2.0,2.0,46,0.00,,,0.00,Wunderground v.1.15,2013-06-17 15:55:00,
2013-06-17 11:00:00,83.4,61.7,29.92,WSW,244,2.0,2.0,48,0.00,,,0.00,Wunderground v.1.15,2013-06-17 16:00:00,
2013-06-17 11:10:00,84.0,63.9,29.92,WSW,244,1.0,1.0,51,0.00,,,0.00,Wunderground v.1.15,2013-06-17 16:10:00,
2013-06-17 11:15:00,84.2,62.4,29.92,WSW,244,1.0,1.0,48,0.00,,,0.00,Wunderground v.1.15,2013-06-17 16:15:00,
2013-06-17 11:20:00,84.4,61.4,29.92,WSW,244,1.0,1.0,46,0.00,,,0.00,Wunderground v.1.15,2013-06-17 16:20:00,
2013-06-17 11:25:00,84.6,62.7,29.92,SW,234,1.0,2.0,48,0.00,,,0.00,Wunderground v.1.15,2013-06-17 16:25:00,
2013-06-17 11:30:00,84.9,63.0,29.92,SW,227,0.0,1.0,48,0.00,,,0.00,Wunderground v.1.15,2013-06-17 16:30:00,
2013-06-17 11:35:00,85.1,62.6,29.92,South,185,1.0,3.0,47,0.00,,,0.00,Wunderground v.1.15,2013-06-17 16:35:00,
2013-06-17 11:40:00,85.2,63.9,29.92,South,180,2.0,2.0,49,0.00,,,0.00,Wunderground v.1.15,2013-06-17 16:40:00,
2013-06-17 11:45:00,85.1,63.2,29.92,South,180,1.0,2.0,48,0.00,,,0.00,Wunderground v.1.15,2013-06-17 16:45:00,
2013-06-17 11:50:00,84.9,59.2,29.92,South,180,1.0,1.0,42,0.00,,,0.00,Wunderground v.1.15,2013-06-17 16:50:00,
2013-06-17 11:55:00,85.2,63.3,29.91,South,181,1.0,4.0,48,0.00,,,0.00,Wunderground v.1.15,2013-06-17 16:55:00,
2013-06-17 12:00:00,85.4,61.6,29.91,South,181,0.0,0.0,45,0.00,,,0.00,Wunderground v.1.15,2013-06-17 17:00:00,
2013-06-17 12:10:00,85.5,61.7,29.91,ESE,119,1.0,1.0,45,0.00,,,0.00,Wunderground v.1.15,2013-06-17 17:10:00,
2013-06-17 12:15:00,85.5,64.2,29.91,ESE,119,1.0,1.0,49,0.00,,,0.00,Wunderground v.1.15,2013-06-17 17:15:00,
2013-06-17 12:20:00,85.6,63.7,29.91,ESE,119,0.0,0.0,48,0.00,,,0.00,Wunderground v.1.15,2013-06-17 17:20:00,
2013-06-17 12:25:00,85.9,61.5,29.92,ESE,119,0.0,0.0,44,0.00,,,0.00,Wunderground v.1.15,2013-06-17 17:25:00,
2013-06-17 12:30:00,86.2,64.2,29.91,ESE,119,0.0,0.0,48,0.00,,,0.00,Wunderground v.1.15,2013-06-17 17:30:00,
2013-06-17 12:35:00,86.3,66.0,29.92,ESE,119,0.0,0.0,51,0.00,,,0.00,Wunderground v.1.15,2013-06-17 17:35:00,
2013-06-17 12:45:00,86.2,64.8,29.92,ESE,119,0.0,0.0,49,0.00,,,0.00,Wunderground v.1.15,2013-06-17 17:45:00,
2013-06-17 12:50:00,86.3,66.6,29.91,ESE,119,0.0,0.0,52,0.00,,,0.00,Wunderground v.1.15,2013-06-17 17:50:00,
2013-06-17 12:55:00,85.9,65.1,29.92,ESE,119,0.0,0.0,50,0.00,,,0.00,Wunderground v.1.15,2013-06-17 17:55:00,
2013-06-17 13:00:00,85.7,60.0,29.91,ESE,119,0.0,0.0,42,0.00,,,0.00,Wunderground v.1.15,2013-06-17 18:00:00,
2013-06-17 13:05:00,85.9,64.5,29.91,ESE,119,0.0,0.0,49,0.00,,,0.00,Wunderground v.1.15,2013-06-17 18:05:00,
2013-06-17 13:10:00,86.1,61.0,29.91,ESE,119,1.0,1.0,43,0.00,,,0.00,Wunderground v.1.15,2013-06-17 18:10:00,
2013-06-17 13:15:00,86.2,58.3,29.91,ESE,119,1.0,1.0,39,0.00,,,0.00,Wunderground v.1.15,2013-06-17 18:15:00,
2013-06-17 13:20:00,86.5,61.3,29.92,ESE,119,0.0,0.0,43,0.00,,,0.00,Wunderground v.1.15,2013-06-17 18:20:00,
2013-06-17 13:25:00,86.9,63.0,29.92,ESE,119,0.0,0.0,45,0.00,,,0.00,Wunderground v.1.15,2013-06-17 18:25:00,
2013-06-17 13:30:00,87.1,63.8,29.91,ESE,119,0.0,0.0,46,0.00,,,0.00,Wunderground v.1.15,2013-06-17 18:30:00,
2013-06-17 13:35:00,87.1,66.8,29.91,ESE,119,0.0,0.0,51,0.00,,,0.00,Wunderground v.1.15,2013-06-17 18:35:00,
2013-06-17 13:40:00,86.9,63.6,29.91,ESE,119,0.0,0.0,46,0.00,,,0.00,Wunderground v.1.15,2013-06-17 18:40:00,
2013-06-17 13:45:00,86.9,63.6,29.91,ESE,119,0.0,0.0,46,0.00,,,0.00,Wunderground v.1.15,2013-06-17 18:45:00,
2013-06-17 13:50:00,86.9,63.0,29.91,ESE,119,0.0,2.0,45,0.00,,,0.00,Wunderground v.1.15,2013-06-17 18:50:00,
2013-06-17 13:55:00,86.7,64.7,29.91,ESE,119,1.0,2.0,48,0.00,,,0.00,Wunderground v.1.15,2013-06-17 18:55:00,
2013-06-17 14:00:00,86.5,63.9,29.91,ESE,119,1.0,1.0,47,0.00,,,0.00,Wunderground v.1.15,2013-06-17 19:00:00,
2013-06-17 14:05:00,86.5,62.6,29.91,ESE,119,1.0,2.0,45,0.00,,,0.00,Wunderground v.1.15,2013-06-17 19:05:00,
2013-06-17 14:10:00,86.6,64.0,29.90,ESE,119,0.0,0.0,47,0.00,,,0.00,Wunderground v.1.15,2013-06-17 19:10:00,
2013-06-17 14:15:00,86.9,63.6,29.90,ESE,119,0.0,1.0,46,0.00,,,0.00,Wunderground v.1.15,2013-06-17 19:15:00,
2013-06-17 14:20:00,87.1,66.2,29.90,ESE,119,0.0,0.0,50,0.00,,,0.00,Wunderground v.1.15,2013-06-17 19:20:00,
2013-06-17 14:25:00,87.0,63.7,29.90,ESE,119,0.0,0.0,46,0.00,,,0.00,Wunderground v.1.15,2013-06-17 19:25:00,
2013-06-17 14:30:00,86.9,62.4,29.90,ESE,119,0.0,1.0,44,0.00,,,0.00,Wunderground v.1.15,2013-06-17 19:30:00,
2013-06-17 14:35:00,86.9,63.6,29.90,ESE,119,0.0,1.0,46,0.00,,,0.00,Wunderground v.1.15,2013-06-17 19:35:00,
2013-06-17 14:40:00,86.8,59.6,29.89,ESE,119,0.0,0.0,40,0.00,,,0.00,Wunderground v.1.15,2013-06-17 19:40:00,
2013-06-17 14:45:00,86.6,66.3,29.89,ESE,119,0.0,0.0,51,0.00,,,0.00,Wunderground v.1.15,2013-06-17 19:45:00,
2013-06-17 14:50:00,86.2,68.7,29.89,ESE,119,0.0,0.0,56,0.00,,,0.00,Wunderground v.1.15,2013-06-17 19:50:00,
2013-06-17 14:55:00,85.9,64.5,29.89,ESE,119,0.0,1.0,49,0.00,,,0.00,Wunderground v.1.15,2013-06-17 19:55:00,
2013-06-17 15:00:00,85.8,63.8,29.89,ESE,119,0.0,3.0,48,0.00,,,0.00,Wunderground v.1.15,2013-06-17 20:00:00,
2013-06-17 15:05:00,85.9,65.1,29.88,ESE,119,1.0,3.0,50,0.00,,,0.00,Wunderground v.1.15,2013-06-17 20:05:00,
2013-06-17 15:10:00,85.9,63.3,29.88,ESE,119,1.0,1.0,47,0.00,,,0.00,Wunderground v.1.15,2013-06-17 20:10:00,
2013-06-17 15:15:00,85.8,61.4,29.87,ESE,119,1.0,1.0,44,0.00,,,0.00,Wunderground v.1.15,2013-06-17 20:15:00,
2013-06-17 15:20:00,85.7,64.9,29.87,ESE,119,0.0,0.0,50,0.00,,,0.00,Wunderground v.1.15,2013-06-17 20:20:00,
2013-06-17 15:25:00,85.5,61.1,29.87,ESE,119,1.0,1.0,44,0.00,,,0.00,Wunderground v.1.15,2013-06-17 20:25:00,
2013-06-17 15:30:00,85.6,63.1,29.87,ESE,119,1.0,1.0,47,0.00,,,0.00,Wunderground v.1.15,2013-06-17 20:30:00,
2013-06-17 15:35:00,85.5,63.6,29.86,ESE,119,0.0,4.0,48,0.00,,,0.00,Wunderground v.1.15,2013-06-17 20:35:00,
2013-06-17 15:40:00,85.3,59.6,29.86,ESE,119,1.0,2.0,42,0.00,,,0.00,Wunderground v.1.15,2013-06-17 20:40:00,
2013-06-17 15:45:00,85.3,61.6,29.86,ESE,119,2.0,2.0,45,0.00,,,0.00,Wunderground v.1.15,2013-06-17 20:45:00,
2013-06-17 15:50:00,85.4,62.3,29.86,ESE,119,1.0,1.0,46,0.00,,,0.00,Wunderground v.1.15,2013-06-17 20:50:00,
2013-06-17 15:55:00,85.0,61.3,29.86,ENE,74,2.0,2.0,45,0.00,,,0.00,Wunderground v.1.15,2013-06-17 20:55:00,
2013-06-17 16:00:00,85.4,62.3,29.86,ENE,74,2.0,2.0,46,0.00,,,0.00,Wunderground v.1.15,2013-06-17 21:00:00,
2013-06-17 16:05:00,85.7,63.1,29.86,ENE,74,0.0,2.0,47,0.00,,,0.00,Wunderground v.1.15,2013-06-17 21:05:00,
2013-06-17 16:10:00,85.6,63.1,29.85,ENE,78,0.0,0.0,47,0.00,,,0.00,Wunderground v.1.15,2013-06-17 21:10:00,
2013-06-17 16:15:00,85.7,62.5,29.86,ENE,78,0.0,0.0,46,0.00,,,0.00,Wunderground v.1.15,2013-06-17 21:15:00,
2013-06-17 16:20:00,85.5,62.4,29.85,ENE,78,0.0,0.0,46,0.00,,,0.00,Wunderground v.1.15,2013-06-17 21:20:00,
2013-06-17 16:25:00,85.4,62.9,29.86,ENE,78,0.0,0.0,47,0.00,,,0.00,Wunderground v.1.15,2013-06-17 21:25:00,
2013-06-17 16:30:00,85.2,65.0,29.86,ENE,78,0.0,0.0,51,0.00,,,0.00,Wunderground v.1.15,2013-06-17 21:30:00,
2013-06-17 16:35:00,84.9,61.2,29.86,ENE,78,1.0,1.0,45,0.00,,,0.00,Wunderground v.1.15,2013-06-17 21:35:00,
2013-06-17 16:40:00,84.9,61.8,29.85,ENE,78,1.0,1.0,46,0.00,,,0.00,Wunderground v.1.15,2013-06-17 21:40:00,
2013-06-17 16:45:00,84.7,60.4,29.85,ENE,78,1.0,1.0,44,0.00,,,0.00,Wunderground v.1.15,2013-06-17 21:45:00,
2013-06-17 16:50:00,84.7,62.2,29.86,ENE,78,1.0,1.0,47,0.00,,,0.00,Wunderground v.1.15,2013-06-17 21:50:00,
2013-06-17 16:55:00,84.5,59.5,29.86,ENE,78,1.0,1.0,43,0.00,,,0.00,Wunderground v.1.15,2013-06-17 21:55:00,
2013-06-17 17:00:00,84.6,62.1,29.86,ENE,78,1.0,1.0,47,0.00,,,0.00,Wunderground v.1.15,2013-06-17 22:00:00,
2013-06-17 17:05:00,84.7,62.2,29.86,ENE,78,0.0,1.0,47,0.00,,,0.00,Wunderground v.1.15,2013-06-17 22:05:00,
2013-06-17 17:10:00,84.8,62.3,29.86,ENE,78,0.0,0.0,47,0.00,,,0.00,Wunderground v.1.15,2013-06-17 22:10:00,
2013-06-17 17:15:00,84.8,63.5,29.86,ENE,78,0.0,0.0,49,0.00,,,0.00,Wunderground v.1.15,2013-06-17 22:15:00,
2013-06-17 17:20:00,84.8,65.8,29.86,ENE,78,0.0,0.0,53,0.00,,,0.00,Wunderground v.1.15,2013-06-17 22:20:00,
2013-06-17 17:25:00,84.6,62.7,29.86,ENE,78,0.0,0.0,48,0.00,,,0.00,Wunderground v.1.15,2013-06-17 22:25:00,
2013-06-17 17:30:00,84.6,66.1,29.86,ENE,78,0.0,0.0,54,0.00,,,0.00,Wunderground v.1.15,2013-06-17 22:30:00,
2013-06-17 17:35:00,84.5,62.1,29.86,ENE,78,0.0,0.0,47,0.00,,,0.00,Wunderground v.1.15,2013-06-17 22:35:00,